Time;durP1;ratioP1;P1;durP2;ratioP2;P2;SDS_P1;SDS_P2;PMS_P1;PMS_P2;Temp;Humidity;BMP_temperature;BMP_pressure;BME280_temperature;BME280_humidity;BME280_pressure;Samples;Min_cycle;Max_cycle;Signal;HPM_P1;HPM_P2
2024/01/17 00:01:23;;;;;;;0.00;0.00;;;;;;;;;;5037213;28;20089;-86
2024/01/17 00:03:48;;;;;;;0.00;0.00;;;;;;;;;;5037091;28;20033;-86
2024/01/17 00:06:14;;;;;;;0.00;0.00;;;;;;;;;;5054814;28;20036;-86
2024/01/17 00:08:39;;;;;;;0.00;0.00;;;;;;;;;;5037274;28;20036;-86
2024/01/17 00:11:06;;;;;;;0.00;0.00;;;;;;;;;;5036993;28;20052;-86
2024/01/17 00:13:31;;;;;;;0.00;0.00;;;;;;;;;;5037040;28;20468;-86
2024/01/17 00:15:57;;;;;;;0.00;0.00;;;;;;;;;;5028994;28;20047;-86
2024/01/17 00:18:22;;;;;;;0.00;0.00;;;;;;;;;;5071536;28;20438;-86
2024/01/17 00:20:48;;;;;;;0.00;0.00;;;;;;;;;;5074004;28;20024;-86
2024/01/17 00:23:13;;;;;;;0.00;0.00;;;;;;;;;;5056671;28;20072;-86
2024/01/17 00:25:39;;;;;;;0.00;0.00;;;;;;;;;;5056510;28;20029;-86
2024/01/17 00:28:04;;;;;;;0.00;0.00;;;;;;;;;;5039782;28;20027;-87
2024/01/17 00:30:30;;;;;;;0.00;0.00;;;;;;;;;;5023009;28;20028;-86
2024/01/17 00:32:56;;;;;;;0.00;0.00;;;;;;;;;;5055316;28;20496;-86
2024/01/17 00:35:21;;;;;;;0.00;0.00;;;;;;;;;;5055905;28;20115;-85
2024/01/17 00:37:47;;;;;;;0.00;0.00;;;;;;;;;;5056342;28;20036;-86
2024/01/17 00:40:12;;;;;;;0.00;0.00;;;;;;;;;;5036265;28;20059;-86
2024/01/17 00:42:40;;;;;;;0.00;0.00;;;;;;;;;;5016026;28;20414;-86
2024/01/17 00:45:06;;;;;;;0.00;0.00;;;;;;;;;;5016453;28;20384;-86
2024/01/17 00:47:32;;;;;;;0.00;0.00;;;;;;;;;;5016291;28;20033;-86
2024/01/17 00:49:58;;;;;;;0.00;0.00;;;;;;;;;;5016296;28;20097;-86
2024/01/17 00:52:24;;;;;;;0.00;0.00;;;;;;;;;;5016711;28;20033;-86
2024/01/17 00:54:49;;;;;;;0.00;0.00;;;;;;;;;;5016702;28;20067;-86
2024/01/17 00:57:15;;;;;;;0.00;0.00;;;;;;;;;;5016340;28;20029;-86
2024/01/17 00:59:40;;;;;;;0.00;0.00;;;;;;;;;;5000197;28;20025;-85
2024/01/17 01:02:06;;;;;;;0.00;0.00;;;;;;;;;;5016527;28;20029;-86
2024/01/17 01:04:31;;;;;;;0.00;0.00;;;;;;;;;;5016012;28;20088;-86
2024/01/17 01:06:57;;;;;;;0.00;0.00;;;;;;;;;;5000345;28;20053;-87
2024/01/17 01:09:22;;;;;;;0.00;0.00;;;;;;;;;;5016441;28;20039;-85
2024/01/17 01:11:48;;;;;;;0.00;0.00;;;;;;;;;;5016334;28;20053;-86
2024/01/17 01:14:13;;;;;;;0.00;0.00;;;;;;;;;;5033573;28;20033;-86
2024/01/17 01:16:40;;;;;;;0.00;0.00;;;;;;;;;;5022132;28;20478;-86
2024/01/17 01:19:06;;;;;;;0.00;0.00;;;;;;;;;;5055949;28;20444;-86
2024/01/17 01:21:31;;;;;;;0.00;0.00;;;;;;;;;;5039049;28;20028;-86
2024/01/17 01:23:57;;;;;;;0.00;0.00;;;;;;;;;;5039054;28;20032;-86
2024/01/17 01:26:22;;;;;;;0.00;0.00;;;;;;;;;;5038980;28;20430;-85
2024/01/17 01:28:49;;;;;;;0.00;0.00;;;;;;;;;;5022964;28;20450;-86
2024/01/17 01:31:14;;;;;;;0.00;0.00;;;;;;;;;;5061490;28;20028;-85
2024/01/17 01:33:40;;;;;;;0.00;0.00;;;;;;;;;;5068232;28;20035;-85
2024/01/17 01:36:06;;;;;;;0.00;0.00;;;;;;;;;;5066070;28;20040;-85
2024/01/17 01:38:31;;;;;;;0.00;0.00;;;;;;;;;;5029467;28;20043;-85
2024/01/17 01:40:58;;;;;;;0.00;0.00;;;;;;;;;;5047184;28;20092;-85
2024/01/17 01:43:24;;;;;;;0.00;0.00;;;;;;;;;;5074046;28;20016;-86
2024/01/17 01:46:10;;;;;;;0.00;0.00;;;;;;;;;;5021363;28;20078;-87
2024/01/17 01:48:35;;;;;;;0.00;0.00;;;;;;;;;;5018222;28;20040;-86
2024/01/17 01:51:01;;;;;;;0.00;0.00;;;;;;;;;;5026207;28;20020;-85
2024/01/17 01:53:27;;;;;;;0.00;0.00;;;;;;;;;;5038690;28;20024;-86
2024/01/17 01:55:52;;;;;;;0.00;0.00;;;;;;;;;;5038970;28;20041;-85
2024/01/17 01:58:18;;;;;;;0.00;0.00;;;;;;;;;;5038118;28;20033;-87
2024/01/17 02:00:44;;;;;;;0.00;0.00;;;;;;;;;;5038434;28;20330;-87
2024/01/17 02:03:09;;;;;;;0.00;0.00;;;;;;;;;;5038118;28;20501;-86
2024/01/17 02:05:35;;;;;;;0.00;0.00;;;;;;;;;;5038913;28;20035;-86
2024/01/17 02:08:00;;;;;;;0.00;0.00;;;;;;;;;;5021494;28;20029;-86
2024/01/17 02:10:26;;;;;;;0.00;0.00;;;;;;;;;;5038299;28;20044;-86
2024/01/17 02:12:51;;;;;;;0.00;0.00;;;;;;;;;;5054857;28;20032;-86
2024/01/17 02:15:18;;;;;;;0.00;0.00;;;;;;;;;;5054970;28;20119;-86
2024/01/17 02:17:43;;;;;;;0.00;0.00;;;;;;;;;;5038361;28;20036;-86
2024/01/17 02:20:09;;;;;;;0.00;0.00;;;;;;;;;;5054054;28;20071;-86
2024/01/17 02:22:34;;;;;;;0.00;0.00;;;;;;;;;;5055523;28;20030;-87
2024/01/17 02:25:04;;;;;;;0.00;0.00;;;;;;;;;;5038698;28;20466;-86
2024/01/17 02:27:30;;;;;;;0.00;0.00;;;;;;;;;;5038514;28;20505;-85
2024/01/17 02:29:55;;;;;;;0.00;0.00;;;;;;;;;;5054873;28;20074;-85
2024/01/17 02:32:21;;;;;;;0.00;0.00;;;;;;;;;;5038255;28;20048;-87
2024/01/17 02:34:46;;;;;;;0.00;0.00;;;;;;;;;;5022187;28;20029;-88
2024/01/17 02:37:13;;;;;;;0.00;0.00;;;;;;;;;;5055200;28;20028;-88
2024/01/17 02:39:39;;;;;;;0.00;0.00;;;;;;;;;;5038611;28;20025;-87
2024/01/17 02:42:04;;;;;;;0.10;0.00;;;;;;;;;;5037804;28;20043;-86
2024/01/17 02:44:30;;;;;;;0.00;0.00;;;;;;;;;;5038349;28;20438;-86
2024/01/17 02:46:56;;;;;;;0.00;0.00;;;;;;;;;;5027989;28;20366;-86
2024/01/17 02:49:21;;;;;;;0.00;0.00;;;;;;;;;;4999085;28;20429;-86
2024/01/17 02:51:48;;;;;;;0.00;0.00;;;;;;;;;;4999064;28;20371;-86
2024/01/17 02:54:13;;;;;;;0.00;0.00;;;;;;;;;;5031684;28;20029;-86
2024/01/17 02:56:39;;;;;;;0.00;0.00;;;;;;;;;;5017686;28;20045;-87
2024/01/17 02:59:06;;;;;;;0.00;0.00;;;;;;;;;;5018796;28;20053;-86
2024/01/17 03:01:32;;;;;;;0.00;0.00;;;;;;;;;;5018449;28;20022;-85
2024/01/17 03:03:57;;;;;;;0.00;0.00;;;;;;;;;;5018725;28;20537;-86
2024/01/17 03:06:22;;;;;;;0.00;0.00;;;;;;;;;;5018558;28;20128;-86
2024/01/17 03:08:48;;;;;;;0.00;0.00;;;;;;;;;;5018734;28;20099;-86
2024/01/17 03:11:14;;;;;;;0.00;0.00;;;;;;;;;;5018570;28;20034;-86
2024/01/17 03:13:39;;;;;;;0.00;0.00;;;;;;;;;;5047836;28;20132;-85
2024/01/17 03:16:05;;;;;;;0.00;0.00;;;;;;;;;;5038717;28;20215;-85
2024/01/17 03:18:30;;;;;;;0.00;0.00;;;;;;;;;;5047574;28;20059;-85
2024/01/17 03:20:56;;;;;;;0.00;0.00;;;;;;;;;;5081467;28;20020;-85
2024/01/17 03:23:21;;;;;;;0.00;0.00;;;;;;;;;;5076232;28;20059;-85
2024/01/17 03:25:48;;;;;;;0.00;0.00;;;;;;;;;;5096878;28;20040;-84
2024/01/17 03:28:13;;;;;;;0.00;0.00;;;;;;;;;;5072455;28;20028;-86
2024/01/17 03:30:39;;;;;;;0.00;0.00;;;;;;;;;;5041253;28;20055;-86
2024/01/17 03:33:04;;;;;;;0.00;0.00;;;;;;;;;;5041019;28;20032;-86
2024/01/17 03:35:30;;;;;;;0.00;0.00;;;;;;;;;;5024085;28;20378;-86
2024/01/17 03:37:57;;;;;;;0.00;0.00;;;;;;;;;;5040717;28;20366;-86
2024/01/17 03:40:23;;;;;;;0.00;0.00;;;;;;;;;;5040485;28;20466;-86
2024/01/17 03:42:48;;;;;;;0.00;0.00;;;;;;;;;;5024626;28;20060;-86
2024/01/17 03:45:14;;;;;;;0.00;0.00;;;;;;;;;;5057182;28;20035;-86
2024/01/17 03:47:39;;;;;;;0.00;0.00;;;;;;;;;;5024818;28;20036;-86
2024/01/17 03:50:05;;;;;;;0.00;0.00;;;;;;;;;;5017983;28;20034;-86
2024/01/17 03:52:31;;;;;;;0.00;0.00;;;;;;;;;;5034072;28;20033;-86
2024/01/17 03:54:56;;;;;;;0.00;0.00;;;;;;;;;;5034012;28;20036;-86
2024/01/17 03:57:22;;;;;;;0.00;0.00;;;;;;;;;;5000947;28;20079;-86
2024/01/17 03:59:47;;;;;;;0.00;0.00;;;;;;;;;;5017329;28;20363;-86
2024/01/17 04:02:13;;;;;;;0.00;0.00;;;;;;;;;;5017263;28;20465;-86
2024/01/17 04:04:40;;;;;;;0.00;0.00;;;;;;;;;;5017502;28;20036;-86
2024/01/17 04:07:08;;;;;;;0.00;0.00;;;;;;;;;;5033649;28;20037;-86
2024/01/17 04:09:34;;;;;;;0.00;0.00;;;;;;;;;;5033589;28;20038;-86
2024/01/17 04:11:59;;;;;;;0.00;0.00;;;;;;;;;;5033412;28;20533;-86
2024/01/17 04:14:25;;;;;;;0.00;0.00;;;;;;;;;;5016824;28;20034;-86
2024/01/17 04:16:51;;;;;;;0.00;0.00;;;;;;;;;;5016980;28;20097;-86
2024/01/17 04:19:16;;;;;;;0.00;0.00;;;;;;;;;;5000435;28;20033;-85
2024/01/17 04:21:42;;;;;;;0.00;0.00;;;;;;;;;;5011962;28;20037;-85
2024/01/17 04:24:07;;;;;;;0.00;0.00;;;;;;;;;;5052610;28;20033;-85
2024/01/17 04:26:33;;;;;;;0.00;0.00;;;;;;;;;;5023414;28;20139;-86
2024/01/17 04:28:58;;;;;;;0.00;0.00;;;;;;;;;;5056362;28;20059;-85
2024/01/17 04:31:30;;;;;;;0.00;0.00;;;;;;;;;;5039577;28;20041;-86
2024/01/17 04:33:56;;;;;;;0.00;0.00;;;;;;;;;;5056695;28;20355;-86
2024/01/17 04:36:22;;;;;;;0.00;0.00;;;;;;;;;;5056052;28;20040;-86
2024/01/17 04:38:48;;;;;;;0.00;0.00;;;;;;;;;;5056262;28;20029;-85
2024/01/17 04:41:15;;;;;;;0.00;0.00;;;;;;;;;;5036844;28;20025;-86
2024/01/17 04:43:41;;;;;;;0.00;0.00;;;;;;;;;;5019929;28;20441;-86
2024/01/17 04:46:14;;;;;;;0.00;0.00;;;;;;;;;;5036105;28;20033;-86
2024/01/17 04:48:40;;;;;;;0.00;0.00;;;;;;;;;;5032871;28;20029;-86
2024/01/17 04:51:06;;;;;;;0.00;0.00;;;;;;;;;;5000123;28;20033;-86
2024/01/17 04:53:37;;;;;;;0.00;0.00;;;;;;;;;;5016274;28;20382;-85
2024/01/17 04:56:03;;;;;;;0.00;0.00;;;;;;;;;;5032805;28;20037;-86
2024/01/17 04:58:28;;;;;;;0.00;0.00;;;;;;;;;;5015990;28;20115;-86
2024/01/17 05:00:54;;;;;;;0.00;0.00;;;;;;;;;;5016355;28;20434;-86
2024/01/17 05:03:19;;;;;;;0.00;0.00;;;;;;;;;;5016454;28;20370;-86
2024/01/17 05:05:45;;;;;;;0.00;0.00;;;;;;;;;;5016246;28;20044;-86
2024/01/17 05:08:11;;;;;;;0.00;0.00;;;;;;;;;;4999643;28;20037;-86
2024/01/17 05:10:37;;;;;;;0.00;0.00;;;;;;;;;;5015693;28;20057;-86
2024/01/17 05:13:03;;;;;;;0.00;0.00;;;;;;;;;;4999891;28;20039;-86
2024/01/17 05:15:28;;;;;;;0.00;0.00;;;;;;;;;;5015763;28;20069;-86
2024/01/17 05:17:54;;;;;;;0.00;0.00;;;;;;;;;;5032497;28;20645;-87
2024/01/17 05:20:20;;;;;;;0.00;0.00;;;;;;;;;;5002677;28;20036;-86
2024/01/17 05:22:45;;;;;;;0.00;0.00;;;;;;;;;;5053031;28;20064;-87
2024/01/17 05:25:11;;;;;;;0.00;0.00;;;;;;;;;;5044135;28;20036;-86
2024/01/17 05:27:39;;;;;;;0.00;0.00;;;;;;;;;;5055512;28;20036;-87
2024/01/17 05:30:10;;;;;;;0.00;0.00;;;;;;;;;;5038166;28;20035;-87
2024/01/17 05:32:38;;;;;;;0.00;0.00;;;;;;;;;;5055077;28;20467;-87
2024/01/17 05:35:05;;;;;;;0.00;0.00;;;;;;;;;;5038337;28;20469;-87
2024/01/17 05:37:32;;;;;;;0.00;0.00;;;;;;;;;;5037113;28;20028;-87
2024/01/17 05:39:58;;;;;;;0.00;0.00;;;;;;;;;;5021032;28;20079;-85
2024/01/17 05:42:42;;;;;;;0.00;0.00;;;;;;;;;;5055858;28;20029;-92
2024/01/17 05:45:12;;;;;;;0.00;0.00;;;;;;;;;;5045834;28;20100;-90
2024/01/17 05:47:39;;;;;;;0.00;0.00;;;;;;;;;;5049576;28;20434;-90
2024/01/17 05:50:09;;;;;;;0.00;0.00;;;;;;;;;;5025664;28;20094;-91
2024/01/17 05:52:37;;;;;;;0.00;0.00;;;;;;;;;;5045147;28;20032;-90
2024/01/17 05:55:11;;;;;;;0.00;0.00;;;;;;;;;;5062439;28;20025;-89
2024/01/17 05:57:37;;;;;;;0.00;0.00;;;;;;;;;;5041970;28;20033;-88
2024/01/17 06:00:12;;;;;;;0.00;0.00;;;;;;;;;;5035014;28;20043;-88
2024/01/17 06:02:43;;;;;;;0.00;0.00;;;;;;;;;;5027979;28;20037;-89
2024/01/17 06:05:08;;;;;;;0.00;0.00;;;;;;;;;;5040986;28;20037;-84
2024/01/17 06:07:48;;;;;;;0.00;0.00;;;;;;;;;;5037639;28;20036;-89
2024/01/17 06:10:14;;;;;;;0.00;0.00;;;;;;;;;;5075351;28;20135;-81
2024/01/17 06:12:40;;;;;;;0.00;0.00;;;;;;;;;;5040098;28;20028;-83
2024/01/17 06:15:11;;;;;;;0.00;0.00;;;;;;;;;;5034125;28;20375;-83
2024/01/17 06:17:37;;;;;;;0.00;0.00;;;;;;;;;;5025015;28;20025;-86
2024/01/17 06:20:02;;;;;;;0.00;0.00;;;;;;;;;;5021750;28;20055;-82
2024/01/17 06:22:28;;;;;;;0.00;0.00;;;;;;;;;;5053961;28;20025;-87
2024/01/17 06:24:56;;;;;;;0.00;0.00;;;;;;;;;;5016150;28;20359;-81
2024/01/17 06:27:22;;;;;;;0.00;0.00;;;;;;;;;;5034250;28;20025;-85
2024/01/17 06:29:48;;;;;;;0.00;0.00;;;;;;;;;;5052540;28;20048;-80
2024/01/17 06:32:13;;;;;;;0.00;0.00;;;;;;;;;;5020451;28;20083;-83
2024/01/17 06:34:39;;;;;;;0.00;0.00;;;;;;;;;;5021582;28;20060;-85
2024/01/17 06:37:05;;;;;;;0.00;0.00;;;;;;;;;;5021210;28;20059;-81
2024/01/17 06:39:31;;;;;;;0.45;0.00;;;;;;;;;;5038678;28;20029;-84
2024/01/17 06:41:59;;;;;;;0.00;0.00;;;;;;;;;;5037187;28;20036;-91
2024/01/17 06:44:37;;;;;;;0.00;0.00;;;;;;;;;;5023696;28;20037;-89
2024/01/17 06:47:38;;;;;;;0.10;0.00;;;;;;;;;;5024027;28;20029;-87
2024/01/17 06:50:09;;;;;;;0.00;0.00;;;;;;;;;;4975170;28;20038;-86
2024/01/17 06:52:42;;;;;;;0.00;0.00;;;;;;;;;;4968242;28;20167;-87
2024/01/17 06:55:08;;;;;;;0.00;0.00;;;;;;;;;;4977990;28;20058;-88
2024/01/17 06:57:42;;;;;;;0.00;0.00;;;;;;;;;;4981913;28;20384;-82
2024/01/17 07:00:08;;;;;;;0.00;0.00;;;;;;;;;;4975765;28;20035;-83
2024/01/17 07:02:34;;;;;;;0.00;0.00;;;;;;;;;;4985616;28;20465;-83
2024/01/17 07:05:03;;;;;;;0.10;0.00;;;;;;;;;;5028449;28;20373;-84
2024/01/17 07:07:28;;;;;;;0.00;0.00;;;;;;;;;;5055960;28;20036;-85
2024/01/17 07:09:54;;;;;;;0.00;0.00;;;;;;;;;;5021217;28;20124;-83
2024/01/17 07:12:29;;;;;;;0.00;0.00;;;;;;;;;;5039647;28;20060;-83
2024/01/17 07:14:54;;;;;;;0.00;0.00;;;;;;;;;;5037786;28;20033;-82
2024/01/17 07:17:20;;;;;;;0.00;0.00;;;;;;;;;;5038539;28;20132;-81
2024/01/17 07:19:45;;;;;;;0.00;0.00;;;;;;;;;;5038104;28;20389;-83
2024/01/17 07:22:13;;;;;;;0.00;0.00;;;;;;;;;;5038531;28;20040;-84
2024/01/17 07:24:49;;;;;;;0.00;0.00;;;;;;;;;;5058042;28;20368;-85
2024/01/17 07:27:35;;;;;;;0.00;0.00;;;;;;;;;;5049537;28;20051;-89
2024/01/17 07:30:05;;;;;;;0.00;0.00;;;;;;;;;;5048418;22;20050;-89
2024/01/17 07:32:31;;;;;;;0.00;0.00;;;;;;;;;;5046886;28;20101;-90
2024/01/17 07:35:02;;;;;;;0.00;0.00;;;;;;;;;;5049070;28;20033;-92
2024/01/17 07:37:34;;;;;;;0.00;0.00;;;;;;;;;;5047857;28;20024;-89
2024/01/17 07:40:09;;;;;;;0.00;0.00;;;;;;;;;;5027275;28;20037;-91
2024/01/17 07:42:54;;;;;;;0.00;0.00;;;;;;;;;;5027086;28;20045;-91
2024/01/17 07:45:23;;;;;;;0.00;0.00;;;;;;;;;;5028947;28;20120;-93
2024/01/17 07:47:54;;;;;;;0.00;0.00;;;;;;;;;;4994082;28;20077;-92
2024/01/17 07:53:42;;;;;;;0.00;0.00;;;;;;;;;;5058886;22;20059;-80
2024/01/17 07:56:10;;;;;;;0.00;0.00;;;;;;;;;;5021097;28;20131;-82
2024/01/17 07:58:36;;;;;;;0.00;0.00;;;;;;;;;;5056679;28;20033;-82
2024/01/17 08:01:02;;;;;;;0.00;0.00;;;;;;;;;;5015495;28;20449;-80
2024/01/17 08:03:28;;;;;;;0.00;0.00;;;;;;;;;;5019614;28;20131;-77
2024/01/17 08:05:53;;;;;;;0.00;0.00;;;;;;;;;;5034949;28;20082;-80
2024/01/17 08:08:19;;;;;;;0.00;0.00;;;;;;;;;;5033560;28;20521;-80
2024/01/17 08:10:45;;;;;;;0.00;0.00;;;;;;;;;;5055404;28;20029;-84
2024/01/17 08:13:13;;;;;;;0.00;0.00;;;;;;;;;;5051938;28;20033;-79
2024/01/17 08:15:38;;;;;;;0.00;0.00;;;;;;;;;;5034142;28;20037;-80
2024/01/17 08:18:04;;;;;;;0.00;0.00;;;;;;;;;;5051904;28;20036;-80
2024/01/17 08:20:36;;;;;;;0.00;0.00;;;;;;;;;;5042816;28;20431;-81
2024/01/17 08:23:02;;;;;;;0.00;0.00;;;;;;;;;;5052911;28;20013;-79
2024/01/17 08:25:28;;;;;;;0.00;0.00;;;;;;;;;;5022748;28;20110;-79
2024/01/17 08:27:54;;;;;;;0.00;0.00;;;;;;;;;;5038901;28;20526;-87
2024/01/17 08:30:20;;;;;;;0.00;0.00;;;;;;;;;;5027946;28;20036;-83
2024/01/17 08:32:45;;;;;;;0.00;0.00;;;;;;;;;;5033254;28;20028;-84
2024/01/17 08:35:12;;;;;;;0.00;0.00;;;;;;;;;;5037001;28;20043;-83
2024/01/17 08:37:37;;;;;;;0.00;0.00;;;;;;;;;;5032752;28;20470;-84
2024/01/17 08:40:03;;;;;;;0.00;0.00;;;;;;;;;;5050413;28;20029;-84
2024/01/17 08:42:29;;;;;;;0.00;0.00;;;;;;;;;;5049245;28;20450;-85
2024/01/17 08:44:54;;;;;;;0.00;0.00;;;;;;;;;;5049356;28;20025;-84
2024/01/17 08:47:20;;;;;;;0.00;0.00;;;;;;;;;;5067659;28;20104;-85
2024/01/17 08:49:45;;;;;;;0.00;0.00;;;;;;;;;;5049758;28;20437;-85
2024/01/17 08:52:19;;;;;;;0.00;0.00;;;;;;;;;;5015213;28;20029;-85
2024/01/17 08:54:45;;;;;;;0.00;0.00;;;;;;;;;;5019459;28;20128;-85
2024/01/17 08:57:11;;;;;;;0.00;0.00;;;;;;;;;;5047067;28;20123;-85
2024/01/17 08:59:37;;;;;;;0.00;0.00;;;;;;;;;;5035749;28;20103;-84
2024/01/17 09:02:10;;;;;;;0.43;0.00;;;;;;;;;;5046473;28;20465;-82
2024/01/17 09:04:39;;;;;;;0.00;0.00;;;;;;;;;;5032532;28;20154;-82
2024/01/17 09:07:08;;;;;;;0.00;0.00;;;;;;;;;;5021759;28;20025;-82
2024/01/17 09:09:37;;;;;;;0.00;0.00;;;;;;;;;;5060336;28;20024;-83
2024/01/17 09:12:03;;;;;;;0.00;0.00;;;;;;;;;;5018834;28;20029;-81
2024/01/17 09:14:41;;;;;;;0.00;0.00;;;;;;;;;;5034427;28;20043;-83
2024/01/17 09:17:09;;;;;;;0.00;0.00;;;;;;;;;;5020457;28;20045;-81
2024/01/17 09:19:35;;;;;;;0.00;0.00;;;;;;;;;;5012610;28;20059;-78
2024/01/17 09:22:10;;;;;;;0.00;0.00;;;;;;;;;;5013480;28;20481;-85
2024/01/17 09:24:37;;;;;;;0.00;0.00;;;;;;;;;;5031075;28;20036;-82
2024/01/17 09:27:03;;;;;;;0.00;0.00;;;;;;;;;;5040027;28;20032;-85
2024/01/17 09:29:33;;;;;;;0.00;0.00;;;;;;;;;;5025458;28;20036;-81
2024/01/17 09:32:03;;;;;;;0.00;0.00;;;;;;;;;;5051416;28;20033;-79
2024/01/17 09:34:29;;;;;;;0.00;0.00;;;;;;;;;;5038772;28;20094;-81
2024/01/17 09:36:54;;;;;;;0.00;0.00;;;;;;;;;;5042945;28;20033;-83
2024/01/17 09:39:20;;;;;;;0.00;0.00;;;;;;;;;;5033687;28;20131;-84
2024/01/17 09:41:49;;;;;;;0.00;0.00;;;;;;;;;;5041947;28;20477;-82
2024/01/17 09:50:19;;;;;;;0.00;0.00;;;;;;;;;;5060800;22;20049;-89
2024/01/17 09:53:08;;;;;;;0.00;0.00;;;;;;;;;;5006741;28;20033;-89
2024/01/17 09:55:36;;;;;;;0.00;0.00;;;;;;;;;;5009329;28;20031;-84
2024/01/17 09:58:04;;;;;;;0.00;0.00;;;;;;;;;;4998911;28;20052;-85
2024/01/17 10:00:30;;;;;;;0.00;0.00;;;;;;;;;;5039473;28;20028;-86
2024/01/17 10:02:57;;;;;;;0.00;0.00;;;;;;;;;;5015244;28;20031;-84
2024/01/17 10:05:22;;;;;;;0.00;0.00;;;;;;;;;;5055470;28;20033;-86
2024/01/17 10:07:52;;;;;;;0.00;0.00;;;;;;;;;;5028042;28;20021;-92
2024/01/17 10:10:21;;;;;;;0.00;0.00;;;;;;;;;;5051620;28;20021;-92
2024/01/17 10:12:54;;;;;;;0.00;0.00;;;;;;;;;;5036195;28;20067;-89
2024/01/17 10:15:32;;;;;;;0.00;0.00;;;;;;;;;;5049961;28;20446;-90
2024/01/17 10:18:02;;;;;;;0.00;0.00;;;;;;;;;;5065632;28;20039;-92
2024/01/17 10:21:38;;;;;;;;;;;;;;;;;;;;;
2024/01/17 10:24:47;;;;;;;0.00;0.00;;;;;;;;;;5113472;22;20055;-95
2024/01/17 10:27:37;;;;;;;0.00;0.00;;;;;;;;;;5006709;28;20046;-92
2024/01/17 10:30:09;;;;;;;0.00;0.00;;;;;;;;;;4979925;28;20046;-93
2024/01/17 10:32:35;;;;;;;0.00;0.00;;;;;;;;;;5041449;28;20032;-88
2024/01/17 10:35:04;;;;;;;0.00;0.00;;;;;;;;;;5060096;28;20054;-89
2024/01/17 10:52:13;;;;;;;0.00;0.00;;;;;;;;;;5360626;22;20057;-81
2024/01/17 10:55:02;;;;;;;0.00;0.00;;;;;;;;;;5019569;28;20037;-88
2024/01/17 10:57:34;;;;;;;0.00;0.00;;;;;;;;;;5021972;28;20035;-86
2024/01/17 11:00:11;;;;;;;0.00;0.00;;;;;;;;;;5040906;28;20056;-84
2024/01/17 11:02:40;;;;;;;0.00;0.00;;;;;;;;;;5008630;28;20030;-91
2024/01/17 11:05:07;;;;;;;0.00;0.00;;;;;;;;;;4989544;28;20512;-89
2024/01/17 11:07:33;;;;;;;0.00;0.00;;;;;;;;;;5019503;28;20037;-84
2024/01/17 11:10:05;;;;;;;0.00;0.00;;;;;;;;;;5003145;28;20053;-82
2024/01/17 11:12:37;;;;;;;0.00;0.00;;;;;;;;;;5018606;28;20075;-90
2024/01/17 11:15:42;;;;;;;0.00;0.00;;;;;;;;;;5005301;28;20041;-91
2024/01/17 11:21:37;;;;;;;0.00;0.00;;;;;;;;;;5111393;22;20057;-86
2024/01/17 11:30:14;;;;;;;0.00;0.00;;;;;;;;;;5048848;22;20065;-87
2024/01/17 11:35:56;;;;;;;0.00;0.00;;;;;;;;;;5404572;22;20163;-88
2024/01/17 11:41:24;;;;;;;0.00;0.00;;;;;;;;;;5249362;22;20963;-86
2024/01/17 11:44:02;;;;;;;0.00;0.00;;;;;;;;;;4987428;28;20026;-86
2024/01/17 11:46:31;;;;;;;0.00;0.00;;;;;;;;;;5009128;28;20091;-86
2024/01/17 11:48:56;;;;;;;0.00;0.00;;;;;;;;;;5044348;28;20025;-86
2024/01/17 11:51:28;;;;;;;0.00;0.00;;;;;;;;;;5026713;28;20449;-86
2024/01/17 11:53:55;;;;;;;0.00;0.00;;;;;;;;;;5035525;28;20029;-83
2024/01/17 11:56:21;;;;;;;0.00;0.00;;;;;;;;;;5004881;28;20052;-87
2024/01/17 11:58:52;;;;;;;0.00;0.00;;;;;;;;;;5021345;28;20433;-86
2024/01/17 12:01:40;;;;;;;0.00;0.00;;;;;;;;;;4995854;28;20039;-87
2024/01/17 12:04:13;;;;;;;0.00;0.00;;;;;;;;;;5045068;28;20031;-86
2024/01/17 12:06:40;;;;;;;0.00;0.00;;;;;;;;;;4994221;28;20037;-86
2024/01/17 12:09:25;;;;;;;0.00;0.00;;;;;;;;;;4998983;28;20033;-91
2024/01/17 12:11:51;;;;;;;0.00;0.00;;;;;;;;;;5045861;28;20033;-90
2024/01/17 12:14:17;;;;;;;0.00;0.00;;;;;;;;;;5005282;28;20036;-89
2024/01/17 12:16:43;;;;;;;0.00;0.00;;;;;;;;;;4990968;28;20359;-90
2024/01/17 12:19:18;;;;;;;0.00;0.00;;;;;;;;;;5008656;28;20025;-90
2024/01/17 12:25:25;;;;;;;0.00;0.00;;;;;;;;;;4967004;28;20045;-90
2024/01/17 12:28:02;;;;;;;0.00;0.00;;;;;;;;;;4988264;28;20139;-89
2024/01/17 12:30:28;;;;;;;0.00;0.00;;;;;;;;;;4963965;28;20286;-88
2024/01/17 12:32:53;;;;;;;0.00;0.00;;;;;;;;;;4982429;28;20034;-89
2024/01/17 12:35:19;;;;;;;0.00;0.00;;;;;;;;;;4996729;28;20033;-90
2024/01/17 12:37:44;;;;;;;0.00;0.00;;;;;;;;;;4983651;28;20033;-88
2024/01/17 12:40:10;;;;;;;0.00;0.00;;;;;;;;;;5006794;28;20048;-89
2024/01/17 12:42:36;;;;;;;0.00;0.00;;;;;;;;;;4999335;28;20030;-89
2024/01/17 12:45:09;;;;;;;0.00;0.00;;;;;;;;;;4982206;28;20452;-89
2024/01/17 12:47:35;;;;;;;0.00;0.00;;;;;;;;;;4997576;28;20029;-90
2024/01/17 12:50:00;;;;;;;0.00;0.00;;;;;;;;;;4980801;28;20357;-89
2024/01/17 12:52:29;;;;;;;0.00;0.00;;;;;;;;;;5013023;28;20029;-89
2024/01/17 12:54:54;;;;;;;0.00;0.00;;;;;;;;;;4993688;28;20092;-88
2024/01/17 12:57:20;;;;;;;0.00;0.00;;;;;;;;;;5011039;28;20037;-89
2024/01/17 12:59:45;;;;;;;0.00;0.00;;;;;;;;;;4996100;28;20033;-89
2024/01/17 13:02:14;;;;;;;0.00;0.00;;;;;;;;;;4996087;28;20125;-90
2024/01/17 13:04:40;;;;;;;0.00;0.00;;;;;;;;;;5013934;28;20040;-81
2024/01/17 13:07:06;;;;;;;0.00;0.00;;;;;;;;;;5012730;28;20061;-84
2024/01/17 13:09:32;;;;;;;0.00;0.00;;;;;;;;;;4996158;28;20444;-81
2024/01/17 13:11:58;;;;;;;0.00;0.00;;;;;;;;;;5013149;28;20036;-82
2024/01/17 13:14:24;;;;;;;0.00;0.00;;;;;;;;;;4996321;28;20029;-83
2024/01/17 13:16:49;;;;;;;0.00;0.00;;;;;;;;;;4979800;28;20045;-82
2024/01/17 13:19:16;;;;;;;0.00;0.00;;;;;;;;;;4979859;28;20120;-86
2024/01/17 13:21:42;;;;;;;0.00;0.00;;;;;;;;;;4996593;28;20506;-85
2024/01/17 13:24:08;;;;;;;0.00;0.00;;;;;;;;;;4979859;28;20038;-83
2024/01/17 13:26:35;;;;;;;0.00;0.00;;;;;;;;;;5015116;28;20087;-84
2024/01/17 13:29:07;;;;;;;0.00;0.00;;;;;;;;;;5015652;28;20095;-85
2024/01/17 13:31:38;;;;;;;0.00;0.00;;;;;;;;;;5016430;28;20033;-84
2024/01/17 13:34:06;;;;;;;0.00;0.00;;;;;;;;;;5000147;28;20037;-84
2024/01/17 13:36:35;;;;;;;0.00;0.00;;;;;;;;;;4996341;28;20041;-84
2024/01/17 13:39:00;;;;;;;0.00;0.00;;;;;;;;;;4982555;28;20040;-89
2024/01/17 13:41:26;;;;;;;0.00;0.00;;;;;;;;;;4982956;28;20057;-85
2024/01/17 13:43:56;;;;;;;0.00;0.00;;;;;;;;;;4998574;28;20029;-87
2024/01/17 13:46:23;;;;;;;0.00;0.00;;;;;;;;;;5000699;28;20034;-84
2024/01/17 13:48:49;;;;;;;0.00;0.00;;;;;;;;;;4999796;28;20470;-86
2024/01/17 13:51:29;;;;;;;0.00;0.00;;;;;;;;;;4999476;28;20033;-87
2024/01/17 13:54:14;;;;;;;0.00;0.00;;;;;;;;;;5000148;28;20029;-91
2024/01/17 13:56:40;;;;;;;0.00;0.00;;;;;;;;;;4988045;28;20475;-89
2024/01/17 13:59:05;;;;;;;0.00;0.00;;;;;;;;;;4983734;28;20040;-91
2024/01/17 14:01:38;;;;;;;0.00;0.00;;;;;;;;;;5015944;28;20399;-91
2024/01/17 14:04:06;;;;;;;0.00;0.00;;;;;;;;;;5034702;28;20021;-85
2024/01/17 14:06:32;;;;;;;0.00;0.00;;;;;;;;;;5000872;28;20050;-91
2024/01/17 14:08:57;;;;;;;0.00;0.00;;;;;;;;;;5015128;28;20478;-89
2024/01/17 14:11:23;;;;;;;0.00;0.00;;;;;;;;;;5015876;28;20065;-84
2024/01/17 14:13:51;;;;;;;0.00;0.00;;;;;;;;;;5015481;28;20059;-87
2024/01/17 14:16:19;;;;;;;0.00;0.00;;;;;;;;;;4999273;28;20095;-86
2024/01/17 14:18:48;;;;;;;0.00;0.00;;;;;;;;;;4984734;28;20125;-92
2024/01/17 14:21:19;;;;;;;0.00;0.00;;;;;;;;;;4984042;28;20029;-88
2024/01/17 14:23:44;;;;;;;0.00;0.00;;;;;;;;;;4984019;28;20029;-87
2024/01/17 14:26:20;;;;;;;0.00;0.00;;;;;;;;;;4984140;28;20037;-93
2024/01/17 14:28:46;;;;;;;0.00;0.00;;;;;;;;;;4986832;28;20446;-85
2024/01/17 14:31:13;;;;;;;0.00;0.00;;;;;;;;;;4963607;28;20121;-84
2024/01/17 14:33:38;;;;;;;0.00;0.00;;;;;;;;;;4995713;28;20069;-82
2024/01/17 14:36:05;;;;;;;0.00;0.00;;;;;;;;;;5013078;28;20045;-86
2024/01/17 14:38:31;;;;;;;0.00;0.00;;;;;;;;;;5022293;28;20025;-89
2024/01/17 14:40:56;;;;;;;0.00;0.00;;;;;;;;;;4981876;28;20068;-89
2024/01/17 14:43:22;;;;;;;0.00;0.00;;;;;;;;;;4999228;28;20112;-86
2024/01/17 14:45:50;;;;;;;0.00;0.00;;;;;;;;;;4982310;28;20029;-91
2024/01/17 14:48:16;;;;;;;0.00;0.00;;;;;;;;;;4983387;28;20029;-90
2024/01/17 14:50:41;;;;;;;0.00;0.00;;;;;;;;;;4999454;28;20033;-81
2024/01/17 14:53:09;;;;;;;0.00;0.00;;;;;;;;;;4998794;28;20025;-83
2024/01/17 14:55:35;;;;;;;0.00;0.00;;;;;;;;;;5012134;28;20052;-82
2024/01/17 14:58:00;;;;;;;0.00;0.00;;;;;;;;;;5002595;28;20443;-87
2024/01/17 15:00:27;;;;;;;0.00;0.00;;;;;;;;;;4986318;28;20029;-88
2024/01/17 15:02:52;;;;;;;0.00;0.00;;;;;;;;;;5002385;28;20025;-86
2024/01/17 15:05:18;;;;;;;0.00;0.00;;;;;;;;;;4985573;28;20060;-83
2024/01/17 15:07:44;;;;;;;0.00;0.00;;;;;;;;;;5002361;28;20036;-87
2024/01/17 15:10:13;;;;;;;0.00;0.00;;;;;;;;;;5018993;28;20120;-87
2024/01/17 15:12:38;;;;;;;0.00;0.00;;;;;;;;;;5002423;28;20462;-91
2024/01/17 15:15:06;;;;;;;0.00;0.00;;;;;;;;;;5022725;28;20116;-87
2024/01/17 15:17:32;;;;;;;0.00;0.00;;;;;;;;;;5003070;28;20030;-85
2024/01/17 15:19:57;;;;;;;0.00;0.00;;;;;;;;;;5002242;28;20112;-84
2024/01/17 15:22:24;;;;;;;0.00;0.00;;;;;;;;;;4985776;28;20064;-83
2024/01/17 15:24:59;;;;;;;0.00;0.00;;;;;;;;;;5002025;28;20332;-86
2024/01/17 15:27:24;;;;;;;0.00;0.00;;;;;;;;;;5018626;28;20099;-86
2024/01/17 15:29:51;;;;;;;0.00;0.00;;;;;;;;;;4989994;28;20029;-87
2024/01/17 15:32:17;;;;;;;0.00;0.00;;;;;;;;;;5021884;28;20025;-87